sensor_id;sensor_type;location;lat;lon;timestamp;P1;durP1;ratioP1;P2;durP2;ratioP2
8574;SDS011;4325;42.520;27.448;2023-07-20T00:01:25;4.73;;;3.70;;
8574;SDS011;4325;42.520;27.448;2023-07-20T00:03:52;5.57;;;4.13;;
8574;SDS011;4325;42.520;27.448;2023-07-20T00:06:22;4.17;;;3.57;;
8574;SDS011;4325;42.520;27.448;2023-07-20T00:08:50;4.40;;;3.77;;
8574;SDS011;4325;42.520;27.448;2023-07-20T00:11:17;4.00;;;3.57;;
8574;SDS011;4325;42.520;27.448;2023-07-20T00:13:44;4.53;;;4.00;;
8574;SDS011;4325;42.520;27.448;2023-07-20T00:16:11;7.30;;;3.90;;
8574;SDS011;4325;42.520;27.448;2023-07-20T00:18:38;6.57;;;5.30;;
8574;SDS011;4325;42.520;27.448;2023-07-20T00:21:05;5.13;;;4.23;;
8574;SDS011;4325;42.520;27.448;2023-07-20T00:23:33;7.67;;;5.43;;
8574;SDS011;4325;42.520;27.448;2023-07-20T00:26:00;5.83;;;4.60;;
8574;SDS011;4325;42.520;27.448;2023-07-20T00:28:27;4.87;;;4.20;;
8574;SDS011;4325;42.520;27.448;2023-07-20T00:30:54;6.20;;;5.03;;
8574;SDS011;4325;42.520;27.448;2023-07-20T00:33:21;4.47;;;4.07;;
8574;SDS011;4325;42.520;27.448;2023-07-20T00:35:48;6.53;;;4.50;;
8574;SDS011;4325;42.520;27.448;2023-07-20T00:38:14;5.27;;;3.40;;
8574;SDS011;4325;42.520;27.448;2023-07-20T00:40:43;4.03;;;3.40;;
8574;SDS011;4325;42.520;27.448;2023-07-20T00:43:10;4.50;;;3.90;;
8574;SDS011;4325;42.520;27.448;2023-07-20T00:45:37;3.83;;;3.37;;
8574;SDS011;4325;42.520;27.448;2023-07-20T00:48:05;4.60;;;3.90;;
8574;SDS011;4325;42.520;27.448;2023-07-20T00:50:33;4.13;;;3.73;;
8574;SDS011;4325;42.520;27.448;2023-07-20T00:53:00;4.03;;;3.60;;
8574;SDS011;4325;42.520;27.448;2023-07-20T00:55:30;4.87;;;3.70;;
8574;SDS011;4325;42.520;27.448;2023-07-20T00:57:59;5.90;;;3.50;;
8574;SDS011;4325;42.520;27.448;2023-07-20T01:00:26;3.40;;;3.10;;
8574;SDS011;4325;42.520;27.448;2023-07-20T01:02:54;4.33;;;3.33;;
8574;SDS011;4325;42.520;27.448;2023-07-20T01:05:21;4.50;;;4.00;;
8574;SDS011;4325;42.520;27.448;2023-07-20T01:07:52;5.07;;;3.70;;
8574;SDS011;4325;42.520;27.448;2023-07-20T01:10:25;3.63;;;3.27;;
8574;SDS011;4325;42.520;27.448;2023-07-20T01:12:59;4.30;;;3.40;;
8574;SDS011;4325;42.520;27.448;2023-07-20T01:15:28;3.57;;;3.27;;
8574;SDS011;4325;42.520;27.448;2023-07-20T01:17:55;3.80;;;3.23;;
8574;SDS011;4325;42.520;27.448;2023-07-20T01:20:21;4.27;;;3.67;;
8574;SDS011;4325;42.520;27.448;2023-07-20T01:23:02;3.70;;;3.33;;
8574;SDS011;4325;42.520;27.448;2023-07-20T01:25:53;5.67;;;3.47;;
8574;SDS011;4325;42.520;27.448;2023-07-20T01:28:44;6.53;;;3.60;;
8574;SDS011;4325;42.520;27.448;2023-07-20T01:31:26;3.60;;;3.13;;
8574;SDS011;4325;42.520;27.448;2023-07-20T01:33:57;3.67;;;3.30;;
8574;SDS011;4325;42.520;27.448;2023-07-20T01:36:26;6.03;;;3.60;;
8574;SDS011;4325;42.520;27.448;2023-07-20T01:38:57;5.73;;;3.57;;
8574;SDS011;4325;42.520;27.448;2023-07-20T01:41:24;3.37;;;3.07;;
8574;SDS011;4325;42.520;27.448;2023-07-20T01:43:51;4.40;;;3.50;;
8574;SDS011;4325;42.520;27.448;2023-07-20T01:46:18;3.57;;;3.13;;
8574;SDS011;4325;42.520;27.448;2023-07-20T01:48:46;4.57;;;3.33;;
8574;SDS011;4325;42.520;27.448;2023-07-20T01:51:13;4.37;;;3.53;;
8574;SDS011;4325;42.520;27.448;2023-07-20T01:53:40;4.17;;;3.53;;
8574;SDS011;4325;42.520;27.448;2023-07-20T01:56:07;3.83;;;3.40;;
8574;SDS011;4325;42.520;27.448;2023-07-20T01:58:33;4.10;;;3.43;;
8574;SDS011;4325;42.520;27.448;2023-07-20T02:01:00;4.40;;;3.97;;
8574;SDS011;4325;42.520;27.448;2023-07-20T02:03:28;3.97;;;3.57;;
8574;SDS011;4325;42.520;27.448;2023-07-20T02:05:56;5.53;;;3.87;;
8574;SDS011;4325;42.520;27.448;2023-07-20T02:08:23;4.87;;;3.30;;
8574;SDS011;4325;42.520;27.448;2023-07-20T02:10:50;4.90;;;3.67;;
8574;SDS011;4325;42.520;27.448;2023-07-20T02:13:18;3.77;;;3.37;;
8574;SDS011;4325;42.520;27.448;2023-07-20T02:15:45;5.37;;;3.87;;
8574;SDS011;4325;42.520;27.448;2023-07-20T02:18:14;4.23;;;3.33;;
8574;SDS011;4325;42.520;27.448;2023-07-20T02:20:41;6.50;;;4.00;;
8574;SDS011;4325;42.520;27.448;2023-07-20T02:23:10;4.17;;;3.73;;
8574;SDS011;4325;42.520;27.448;2023-07-20T02:25:37;9.47;;;4.37;;
8574;SDS011;4325;42.520;27.448;2023-07-20T02:28:04;7.83;;;5.13;;
8574;SDS011;4325;42.520;27.448;2023-07-20T02:30:31;9.43;;;5.93;;
8574;SDS011;4325;42.520;27.448;2023-07-20T02:32:58;6.33;;;4.67;;
8574;SDS011;4325;42.520;27.448;2023-07-20T02:35:25;6.33;;;4.73;;
8574;SDS011;4325;42.520;27.448;2023-07-20T02:37:52;7.53;;;4.37;;
8574;SDS011;4325;42.520;27.448;2023-07-20T02:40:20;4.80;;;4.10;;
8574;SDS011;4325;42.520;27.448;2023-07-20T02:42:48;5.67;;;4.17;;
8574;SDS011;4325;42.520;27.448;2023-07-20T02:45:15;5.63;;;3.90;;
8574;SDS011;4325;42.520;27.448;2023-07-20T02:47:42;4.40;;;4.00;;
8574;SDS011;4325;42.520;27.448;2023-07-20T02:50:09;6.87;;;3.97;;
8574;SDS011;4325;42.520;27.448;2023-07-20T02:52:38;6.63;;;4.77;;
8574;SDS011;4325;42.520;27.448;2023-07-20T02:55:05;5.20;;;4.07;;
8574;SDS011;4325;42.520;27.448;2023-07-20T02:57:34;4.33;;;3.90;;
8574;SDS011;4325;42.520;27.448;2023-07-20T03:00:02;4.13;;;3.37;;
8574;SDS011;4325;42.520;27.448;2023-07-20T03:02:31;4.20;;;3.80;;
8574;SDS011;4325;42.520;27.448;2023-07-20T03:04:58;4.07;;;3.60;;
8574;SDS011;4325;42.520;27.448;2023-07-20T03:07:26;6.43;;;3.60;;
8574;SDS011;4325;42.520;27.448;2023-07-20T03:09:53;5.80;;;4.27;;
8574;SDS011;4325;42.520;27.448;2023-07-20T03:12:20;4.87;;;3.80;;
8574;SDS011;4325;42.520;27.448;2023-07-20T03:14:48;7.30;;;5.23;;
8574;SDS011;4325;42.520;27.448;2023-07-20T03:17:15;8.40;;;3.63;;
8574;SDS011;4325;42.520;27.448;2023-07-20T03:19:42;4.20;;;3.30;;
8574;SDS011;4325;42.520;27.448;2023-07-20T03:22:09;10.30;;;6.07;;
8574;SDS011;4325;42.520;27.448;2023-07-20T03:24:36;5.80;;;3.70;;
8574;SDS011;4325;42.520;27.448;2023-07-20T03:27:03;5.97;;;4.37;;
8574;SDS011;4325;42.520;27.448;2023-07-20T03:29:31;6.20;;;4.37;;
8574;SDS011;4325;42.520;27.448;2023-07-20T03:32:00;7.73;;;3.67;;
8574;SDS011;4325;42.520;27.448;2023-07-20T03:34:27;5.83;;;3.70;;
8574;SDS011;4325;42.520;27.448;2023-07-20T03:36:54;4.30;;;3.70;;
8574;SDS011;4325;42.520;27.448;2023-07-20T03:39:21;4.17;;;3.77;;
8574;SDS011;4325;42.520;27.448;2023-07-20T03:41:48;5.40;;;4.23;;
8574;SDS011;4325;42.520;27.448;2023-07-20T03:44:15;4.23;;;3.57;;
8574;SDS011;4325;42.520;27.448;2023-07-20T03:46:42;7.07;;;4.60;;
8574;SDS011;4325;42.520;27.448;2023-07-20T03:49:11;5.87;;;3.33;;
8574;SDS011;4325;42.520;27.448;2023-07-20T03:51:38;5.50;;;3.63;;
8574;SDS011;4325;42.520;27.448;2023-07-20T03:54:05;6.50;;;4.20;;
8574;SDS011;4325;42.520;27.448;2023-07-20T03:56:33;18.90;;;4.17;;
8574;SDS011;4325;42.520;27.448;2023-07-20T03:59:00;5.07;;;3.57;;
8574;SDS011;4325;42.520;27.448;2023-07-20T04:01:27;3.67;;;3.33;;
8574;SDS011;4325;42.520;27.448;2023-07-20T04:03:54;5.17;;;3.23;;
8574;SDS011;4325;42.520;27.448;2023-07-20T04:06:23;9.23;;;3.90;;
8574;SDS011;4325;42.520;27.448;2023-07-20T04:08:49;4.10;;;3.60;;
8574;SDS011;4325;42.520;27.448;2023-07-20T04:11:16;6.37;;;4.03;;
8574;SDS011;4325;42.520;27.448;2023-07-20T04:13:43;5.27;;;4.13;;
8574;SDS011;4325;42.520;27.448;2023-07-20T04:16:10;7.17;;;5.60;;
8574;SDS011;4325;42.520;27.448;2023-07-20T04:18:37;3.80;;;3.33;;
8574;SDS011;4325;42.520;27.448;2023-07-20T04:21:04;4.00;;;3.40;;
8574;SDS011;4325;42.520;27.448;2023-07-20T04:23:33;7.20;;;4.07;;
8574;SDS011;4325;42.520;27.448;2023-07-20T04:26:00;4.83;;;3.27;;
8574;SDS011;4325;42.520;27.448;2023-07-20T04:28:27;3.63;;;3.33;;
8574;SDS011;4325;42.520;27.448;2023-07-20T04:30:54;4.80;;;3.93;;
8574;SDS011;4325;42.520;27.448;2023-07-20T04:33:21;3.53;;;3.23;;
8574;SDS011;4325;42.520;27.448;2023-07-20T04:35:49;3.87;;;2.90;;
8574;SDS011;4325;42.520;27.448;2023-07-20T04:38:16;4.43;;;2.80;;
8574;SDS011;4325;42.520;27.448;2023-07-20T04:40:45;7.67;;;3.90;;
8574;SDS011;4325;42.520;27.448;2023-07-20T04:43:13;6.97;;;3.50;;
8574;SDS011;4325;42.520;27.448;2023-07-20T04:45:41;3.50;;;3.07;;
8574;SDS011;4325;42.520;27.448;2023-07-20T04:48:09;5.37;;;3.70;;
8574;SDS011;4325;42.520;27.448;2023-07-20T04:50:37;6.53;;;3.53;;
8574;SDS011;4325;42.520;27.448;2023-07-20T04:53:04;7.63;;;3.40;;
8574;SDS011;4325;42.520;27.448;2023-07-20T04:55:31;4.67;;;4.00;;
8574;SDS011;4325;42.520;27.448;2023-07-20T04:58:02;6.73;;;3.60;;
8574;SDS011;4325;42.520;27.448;2023-07-20T05:00:29;8.37;;;4.03;;
8574;SDS011;4325;42.520;27.448;2023-07-20T05:02:56;4.17;;;3.13;;
8574;SDS011;4325;42.520;27.448;2023-07-20T05:05:23;4.33;;;3.57;;
8574;SDS011;4325;42.520;27.448;2023-07-20T05:07:50;5.27;;;3.43;;
8574;SDS011;4325;42.520;27.448;2023-07-20T05:10:17;3.63;;;3.27;;
8574;SDS011;4325;42.520;27.448;2023-07-20T05:12:45;5.07;;;2.53;;
8574;SDS011;4325;42.520;27.448;2023-07-20T05:15:13;5.30;;;4.00;;
8574;SDS011;4325;42.520;27.448;2023-07-20T05:17:40;5.00;;;2.80;;
8574;SDS011;4325;42.520;27.448;2023-07-20T05:20:07;5.03;;;4.27;;
8574;SDS011;4325;42.520;27.448;2023-07-20T05:22:37;7.83;;;4.47;;
8574;SDS011;4325;42.520;27.448;2023-07-20T05:25:06;4.93;;;3.63;;
8574;SDS011;4325;42.520;27.448;2023-07-20T05:27:34;3.97;;;3.27;;
8574;SDS011;4325;42.520;27.448;2023-07-20T05:30:03;5.80;;;3.67;;
8574;SDS011;4325;42.520;27.448;2023-07-20T05:32:32;5.07;;;3.67;;
8574;SDS011;4325;42.520;27.448;2023-07-20T05:34:59;3.90;;;3.40;;
8574;SDS011;4325;42.520;27.448;2023-07-20T05:37:26;11.00;;;3.70;;
8574;SDS011;4325;42.520;27.448;2023-07-20T05:39:53;3.87;;;3.47;;
8574;SDS011;4325;42.520;27.448;2023-07-20T05:42:20;4.23;;;3.83;;
8574;SDS011;4325;42.520;27.448;2023-07-20T05:44:46;6.53;;;3.87;;
8574;SDS011;4325;42.520;27.448;2023-07-20T05:47:15;6.83;;;2.90;;
8574;SDS011;4325;42.520;27.448;2023-07-20T05:49:43;4.20;;;2.70;;
8574;SDS011;4325;42.520;27.448;2023-07-20T05:52:10;4.97;;;3.37;;
8574;SDS011;4325;42.520;27.448;2023-07-20T05:54:37;3.83;;;2.70;;
8574;SDS011;4325;42.520;27.448;2023-07-20T05:57:05;3.90;;;2.80;;
8574;SDS011;4325;42.520;27.448;2023-07-20T05:59:32;5.60;;;3.53;;
8574;SDS011;4325;42.520;27.448;2023-07-20T06:01:59;3.60;;;2.70;;
8574;SDS011;4325;42.520;27.448;2023-07-20T06:04:26;3.50;;;3.13;;
8574;SDS011;4325;42.520;27.448;2023-07-20T06:06:54;3.60;;;2.90;;
8574;SDS011;4325;42.520;27.448;2023-07-20T06:09:21;4.63;;;3.80;;
8574;SDS011;4325;42.520;27.448;2023-07-20T06:11:48;3.70;;;2.90;;
8574;SDS011;4325;42.520;27.448;2023-07-20T06:14:15;5.93;;;2.60;;
8574;SDS011;4325;42.520;27.448;2023-07-20T06:16:43;3.10;;;2.70;;
8574;SDS011;4325;42.520;27.448;2023-07-20T06:19:10;11.30;;;3.30;;
8574;SDS011;4325;42.520;27.448;2023-07-20T06:21:38;9.20;;;3.43;;
8574;SDS011;4325;42.520;27.448;2023-07-20T06:24:06;3.53;;;2.57;;
8574;SDS011;4325;42.520;27.448;2023-07-20T06:26:33;4.07;;;2.47;;
8574;SDS011;4325;42.520;27.448;2023-07-20T06:29:04;3.17;;;2.50;;
8574;SDS011;4325;42.520;27.448;2023-07-20T06:31:31;3.80;;;2.53;;
8574;SDS011;4325;42.520;27.448;2023-07-20T06:33:58;3.53;;;2.60;;
8574;SDS011;4325;42.520;27.448;2023-07-20T06:36:26;3.27;;;2.97;;
8574;SDS011;4325;42.520;27.448;2023-07-20T06:38:53;5.57;;;3.97;;
8574;SDS011;4325;42.520;27.448;2023-07-20T06:41:21;5.57;;;2.70;;
8574;SDS011;4325;42.520;27.448;2023-07-20T06:43:48;10.47;;;2.43;;
8574;SDS011;4325;42.520;27.448;2023-07-20T06:46:17;4.57;;;3.30;;
8574;SDS011;4325;42.520;27.448;2023-07-20T06:48:44;5.53;;;3.00;;
8574;SDS011;4325;42.520;27.448;2023-07-20T06:51:11;4.27;;;3.03;;
8574;SDS011;4325;42.520;27.448;2023-07-20T06:53:38;3.50;;;2.60;;
8574;SDS011;4325;42.520;27.448;2023-07-20T06:56:05;3.80;;;3.13;;
8574;SDS011;4325;42.520;27.448;2023-07-20T06:58:33;4.50;;;2.87;;
8574;SDS011;4325;42.520;27.448;2023-07-20T07:01:04;5.20;;;2.93;;
8574;SDS011;4325;42.520;27.448;2023-07-20T07:03:31;5.47;;;2.27;;
8574;SDS011;4325;42.520;27.448;2023-07-20T07:05:58;2.50;;;2.30;;
8574;SDS011;4325;42.520;27.448;2023-07-20T07:08:25;2.47;;;1.97;;
8574;SDS011;4325;42.520;27.448;2023-07-20T07:10:52;3.70;;;2.43;;
8574;SDS011;4325;42.520;27.448;2023-07-20T07:13:19;4.70;;;2.70;;
8574;SDS011;4325;42.520;27.448;2023-07-20T07:15:47;2.87;;;2.63;;
8574;SDS011;4325;42.520;27.448;2023-07-20T07:18:14;3.97;;;2.23;;
8574;SDS011;4325;42.520;27.448;2023-07-20T07:20:49;3.33;;;2.83;;
8574;SDS011;4325;42.520;27.448;2023-07-20T07:23:17;4.50;;;2.70;;
8574;SDS011;4325;42.520;27.448;2023-07-20T07:25:44;5.17;;;2.83;;
8574;SDS011;4325;42.520;27.448;2023-07-20T07:28:11;4.47;;;2.70;;
8574;SDS011;4325;42.520;27.448;2023-07-20T07:30:38;6.33;;;2.90;;
8574;SDS011;4325;42.520;27.448;2023-07-20T07:33:06;7.00;;;3.20;;
8574;SDS011;4325;42.520;27.448;2023-07-20T07:35:33;5.83;;;2.60;;
8574;SDS011;4325;42.520;27.448;2023-07-20T07:38:00;3.07;;;2.77;;
8574;SDS011;4325;42.520;27.448;2023-07-20T07:40:27;5.27;;;3.00;;
8574;SDS011;4325;42.520;27.448;2023-07-20T07:42:54;6.87;;;2.50;;
8574;SDS011;4325;42.520;27.448;2023-07-20T07:45:21;5.97;;;3.20;;
8574;SDS011;4325;42.520;27.448;2023-07-20T07:47:48;3.63;;;2.67;;
8574;SDS011;4325;42.520;27.448;2023-07-20T07:50:16;4.70;;;3.17;;
8574;SDS011;4325;42.520;27.448;2023-07-20T07:52:43;3.83;;;3.00;;
8574;SDS011;4325;42.520;27.448;2023-07-20T07:55:10;8.03;;;3.00;;
8574;SDS011;4325;42.520;27.448;2023-07-20T07:57:36;3.13;;;2.50;;
8574;SDS011;4325;42.520;27.448;2023-07-20T08:00:04;6.63;;;3.07;;
8574;SDS011;4325;42.520;27.448;2023-07-20T08:02:36;2.80;;;2.60;;
8574;SDS011;4325;42.520;27.448;2023-07-20T08:05:03;3.10;;;2.80;;
8574;SDS011;4325;42.520;27.448;2023-07-20T08:07:31;3.60;;;2.90;;
8574;SDS011;4325;42.520;27.448;2023-07-20T08:10:17;3.30;;;2.53;;
8574;SDS011;4325;42.520;27.448;2023-07-20T08:12:44;3.73;;;2.80;;
8574;SDS011;4325;42.520;27.448;2023-07-20T08:15:11;2.80;;;2.60;;
8574;SDS011;4325;42.520;27.448;2023-07-20T08:17:39;3.83;;;2.70;;
8574;SDS011;4325;42.520;27.448;2023-07-20T08:20:07;4.23;;;3.03;;
8574;SDS011;4325;42.520;27.448;2023-07-20T08:22:38;3.70;;;2.83;;
8574;SDS011;4325;42.520;27.448;2023-07-20T08:25:05;2.97;;;2.67;;
8574;SDS011;4325;42.520;27.448;2023-07-20T08:27:33;3.70;;;3.20;;
8574;SDS011;4325;42.520;27.448;2023-07-20T08:30:00;3.73;;;2.97;;
8574;SDS011;4325;42.520;27.448;2023-07-20T08:32:27;3.73;;;2.47;;
8574;SDS011;4325;42.520;27.448;2023-07-20T08:34:54;3.30;;;3.00;;
8574;SDS011;4325;42.520;27.448;2023-07-20T08:37:21;5.03;;;3.00;;
8574;SDS011;4325;42.520;27.448;2023-07-20T08:39:50;4.23;;;2.97;;
8574;SDS011;4325;42.520;27.448;2023-07-20T08:42:17;3.90;;;3.20;;
8574;SDS011;4325;42.520;27.448;2023-07-20T08:44:44;9.33;;;2.93;;
8574;SDS011;4325;42.520;27.448;2023-07-20T08:47:14;7.10;;;2.93;;
8574;SDS011;4325;42.520;27.448;2023-07-20T08:49:42;5.07;;;3.17;;
8574;SDS011;4325;42.520;27.448;2023-07-20T08:52:10;12.27;;;4.28;;
8574;SDS011;4325;42.520;27.448;2023-07-20T08:54:38;4.30;;;2.55;;
8574;SDS011;4325;42.520;27.448;2023-07-20T08:57:07;8.40;;;3.30;;
8574;SDS011;4325;42.520;27.448;2023-07-20T08:59:37;5.72;;;2.78;;
8574;SDS011;4325;42.520;27.448;2023-07-20T09:02:05;8.50;;;2.60;;
8574;SDS011;4325;42.520;27.448;2023-07-20T09:04:35;4.28;;;2.97;;
8574;SDS011;4325;42.520;27.448;2023-07-20T09:07:02;10.43;;;3.20;;
8574;SDS011;4325;42.520;27.448;2023-07-20T09:09:29;3.63;;;2.63;;
8574;SDS011;4325;42.520;27.448;2023-07-20T09:11:56;2.72;;;2.53;;
8574;SDS011;4325;42.520;27.448;2023-07-20T09:14:24;3.00;;;2.60;;
8574;SDS011;4325;42.520;27.448;2023-07-20T09:16:52;3.85;;;2.72;;
8574;SDS011;4325;42.520;27.448;2023-07-20T09:19:20;3.28;;;2.38;;
8574;SDS011;4325;42.520;27.448;2023-07-20T09:21:48;5.10;;;2.38;;
8574;SDS011;4325;42.520;27.448;2023-07-20T09:24:16;4.35;;;2.58;;
8574;SDS011;4325;42.520;27.448;2023-07-20T09:26:44;7.70;;;2.88;;
8574;SDS011;4325;42.520;27.448;2023-07-20T09:29:14;2.33;;;2.13;;
8574;SDS011;4325;42.520;27.448;2023-07-20T09:31:45;3.55;;;2.45;;
8574;SDS011;4325;42.520;27.448;2023-07-20T09:34:25;4.55;;;2.72;;
8574;SDS011;4325;42.520;27.448;2023-07-20T09:36:52;2.70;;;2.50;;
8574;SDS011;4325;42.520;27.448;2023-07-20T09:39:19;4.78;;;3.10;;
8574;SDS011;4325;42.520;27.448;2023-07-20T09:41:46;2.85;;;2.35;;
8574;SDS011;4325;42.520;27.448;2023-07-20T09:44:14;3.10;;;2.80;;
8574;SDS011;4325;42.520;27.448;2023-07-20T09:46:41;3.33;;;2.53;;
8574;SDS011;4325;42.520;27.448;2023-07-20T09:49:11;3.65;;;3.03;;
8574;SDS011;4325;42.520;27.448;2023-07-20T09:51:38;6.85;;;2.67;;
8574;SDS011;4325;42.520;27.448;2023-07-20T09:54:06;3.78;;;2.28;;
8574;SDS011;4325;42.520;27.448;2023-07-20T09:56:34;4.70;;;2.88;;
8574;SDS011;4325;42.520;27.448;2023-07-20T09:59:01;2.50;;;2.30;;
8574;SDS011;4325;42.520;27.448;2023-07-20T10:01:29;3.20;;;2.78;;
8574;SDS011;4325;42.520;27.448;2023-07-20T10:03:59;4.50;;;2.80;;
8574;SDS011;4325;42.520;27.448;2023-07-20T10:06:32;5.78;;;2.72;;
8574;SDS011;4325;42.520;27.448;2023-07-20T10:09:01;4.05;;;2.83;;
8574;SDS011;4325;42.520;27.448;2023-07-20T10:11:31;4.50;;;2.80;;
8574;SDS011;4325;42.520;27.448;2023-07-20T10:14:03;2.63;;;2.42;;
8574;SDS011;4325;42.520;27.448;2023-07-20T10:16:32;9.43;;;2.47;;
8574;SDS011;4325;42.520;27.448;2023-07-20T10:19:03;3.95;;;2.45;;
8574;SDS011;4325;42.520;27.448;2023-07-20T10:21:35;3.25;;;2.95;;
8574;SDS011;4325;42.520;27.448;2023-07-20T10:24:08;3.15;;;2.40;;
8574;SDS011;4325;42.520;27.448;2023-07-20T10:26:36;3.50;;;2.38;;
8574;SDS011;4325;42.520;27.448;2023-07-20T10:29:03;4.60;;;2.17;;
8574;SDS011;4325;42.520;27.448;2023-07-20T10:31:31;3.58;;;2.65;;
8574;SDS011;4325;42.520;27.448;2023-07-20T10:33:59;3.67;;;2.60;;
8574;SDS011;4325;42.520;27.448;2023-07-20T10:36:27;3.88;;;2.58;;
8574;SDS011;4325;42.520;27.448;2023-07-20T10:38:55;3.47;;;2.58;;
8574;SDS011;4325;42.520;27.448;2023-07-20T10:41:27;4.13;;;3.03;;
8574;SDS011;4325;42.520;27.448;2023-07-20T10:43:58;2.88;;;2.63;;
8574;SDS011;4325;42.520;27.448;2023-07-20T10:46:33;7.30;;;2.65;;
8574;SDS011;4325;42.520;27.448;2023-07-20T10:49:01;3.03;;;2.72;;
8574;SDS011;4325;42.520;27.448;2023-07-20T10:51:30;8.77;;;2.78;;
8574;SDS011;4325;42.520;27.448;2023-07-20T10:54:08;2.88;;;2.58;;
8574;SDS011;4325;42.520;27.448;2023-07-20T10:56:35;2.83;;;2.63;;
8574;SDS011;4325;42.520;27.448;2023-07-20T10:59:02;5.70;;;2.88;;
8574;SDS011;4325;42.520;27.448;2023-07-20T11:01:45;3.15;;;2.95;;
8574;SDS011;4325;42.520;27.448;2023-07-20T11:04:14;3.50;;;2.63;;
8574;SDS011;4325;42.520;27.448;2023-07-20T11:06:42;2.97;;;2.75;;
8574;SDS011;4325;42.520;27.448;2023-07-20T11:09:11;3.20;;;2.92;;
8574;SDS011;4325;42.520;27.448;2023-07-20T11:11:40;2.70;;;2.50;;
8574;SDS011;4325;42.520;27.448;2023-07-20T11:14:09;2.92;;;2.72;;
8574;SDS011;4325;42.520;27.448;2023-07-20T11:16:46;3.10;;;2.72;;
8574;SDS011;4325;42.520;27.448;2023-07-20T11:19:14;3.92;;;3.05;;
8574;SDS011;4325;42.520;27.448;2023-07-20T11:21:43;2.28;;;2.08;;
8574;SDS011;4325;42.520;27.448;2023-07-20T11:24:12;2.88;;;2.58;;
8574;SDS011;4325;42.520;27.448;2023-07-20T11:26:40;2.60;;;2.40;;
8574;SDS011;4325;42.520;27.448;2023-07-20T11:29:08;5.18;;;2.72;;
8574;SDS011;4325;42.520;27.448;2023-07-20T11:31:37;3.10;;;2.80;;
8574;SDS011;4325;42.520;27.448;2023-07-20T11:34:05;3.45;;;2.97;;
8574;SDS011;4325;42.520;27.448;2023-07-20T11:36:33;3.40;;;3.10;;
8574;SDS011;4325;42.520;27.448;2023-07-20T11:39:00;3.63;;;2.60;;
8574;SDS011;4325;42.520;27.448;2023-07-20T11:41:31;7.15;;;2.78;;
8574;SDS011;4325;42.520;27.448;2023-07-20T11:43:59;6.45;;;3.00;;
8574;SDS011;4325;42.520;27.448;2023-07-20T11:46:27;3.42;;;2.97;;
8574;SDS011;4325;42.520;27.448;2023-07-20T11:48:57;4.78;;;2.85;;
8574;SDS011;4325;42.520;27.448;2023-07-20T11:51:25;2.95;;;2.63;;
8574;SDS011;4325;42.520;27.448;2023-07-20T11:53:53;3.15;;;2.95;;
8574;SDS011;4325;42.520;27.448;2023-07-20T11:56:21;3.95;;;3.42;;
8574;SDS011;4325;42.520;27.448;2023-07-20T12:01:32;4.10;;;3.45;;
8574;SDS011;4325;42.520;27.448;2023-07-20T12:04:00;5.25;;;3.35;;
8574;SDS011;4325;42.520;27.448;2023-07-20T12:06:28;5.72;;;3.55;;
8574;SDS011;4325;42.520;27.448;2023-07-20T12:08:56;3.42;;;2.67;;
8574;SDS011;4325;42.520;27.448;2023-07-20T12:11:30;3.13;;;2.83;;
8574;SDS011;4325;42.520;27.448;2023-07-20T12:13:58;3.72;;;3.35;;
8574;SDS011;4325;42.520;27.448;2023-07-20T12:16:28;4.38;;;3.22;;
8574;SDS011;4325;42.520;27.448;2023-07-20T12:19:02;3.50;;;3.15;;
8574;SDS011;4325;42.520;27.448;2023-07-20T12:21:29;3.65;;;3.35;;
8574;SDS011;4325;42.520;27.448;2023-07-20T12:23:56;5.43;;;3.25;;
8574;SDS011;4325;42.520;27.448;2023-07-20T12:26:24;3.55;;;2.95;;
8574;SDS011;4325;42.520;27.448;2023-07-20T12:28:51;3.17;;;2.97;;
8574;SDS011;4325;42.520;27.448;2023-07-20T12:31:19;4.10;;;3.70;;
8574;SDS011;4325;42.520;27.448;2023-07-20T12:33:49;4.50;;;3.60;;
8574;SDS011;4325;42.520;27.448;2023-07-20T12:36:16;3.33;;;2.75;;
8574;SDS011;4325;42.520;27.448;2023-07-20T12:38:44;3.63;;;3.08;;
8574;SDS011;4325;42.520;27.448;2023-07-20T12:41:12;2.95;;;2.75;;
8574;SDS011;4325;42.520;27.448;2023-07-20T12:43:39;2.88;;;2.58;;
8574;SDS011;4325;42.520;27.448;2023-07-20T12:46:06;2.78;;;2.50;;
8574;SDS011;4325;42.520;27.448;2023-07-20T12:48:34;3.90;;;3.42;;
8574;SDS011;4325;42.520;27.448;2023-07-20T12:51:04;3.33;;;2.97;;
8574;SDS011;4325;42.520;27.448;2023-07-20T12:53:31;4.70;;;3.28;;
8574;SDS011;4325;42.520;27.448;2023-07-20T12:55:58;4.72;;;3.00;;
8574;SDS011;4325;42.520;27.448;2023-07-20T12:58:26;3.40;;;2.90;;
8574;SDS011;4325;42.520;27.448;2023-07-20T13:00:53;3.25;;;2.95;;
8574;SDS011;4325;42.520;27.448;2023-07-20T13:03:20;2.78;;;2.58;;
8574;SDS011;4325;42.520;27.448;2023-07-20T13:05:47;4.15;;;2.90;;
8574;SDS011;4325;42.520;27.448;2023-07-20T13:08:16;3.50;;;2.80;;
8574;SDS011;4325;42.520;27.448;2023-07-20T13:10:45;3.10;;;2.80;;
8574;SDS011;4325;42.520;27.448;2023-07-20T13:13:11;5.50;;;3.45;;
8574;SDS011;4325;42.520;27.448;2023-07-20T13:15:42;3.63;;;2.90;;
8574;SDS011;4325;42.520;27.448;2023-07-20T13:18:11;3.28;;;2.67;;
8574;SDS011;4325;42.520;27.448;2023-07-20T13:20:39;3.20;;;2.55;;
8574;SDS011;4325;42.520;27.448;2023-07-20T13:23:06;2.40;;;2.30;;
8574;SDS011;4325;42.520;27.448;2023-07-20T13:25:35;3.45;;;3.10;;
8574;SDS011;4325;42.520;27.448;2023-07-20T13:28:01;3.40;;;2.65;;
8574;SDS011;4325;42.520;27.448;2023-07-20T13:30:28;2.75;;;2.55;;
8574;SDS011;4325;42.520;27.448;2023-07-20T13:32:55;3.22;;;2.90;;
8574;SDS011;4325;42.520;27.448;2023-07-20T13:35:22;3.30;;;2.78;;
8574;SDS011;4325;42.520;27.448;2023-07-20T13:37:49;6.50;;;2.90;;
8574;SDS011;4325;42.520;27.448;2023-07-20T13:40:16;3.22;;;2.50;;
8574;SDS011;4325;42.520;27.448;2023-07-20T13:42:46;3.00;;;2.72;;
8574;SDS011;4325;42.520;27.448;2023-07-20T13:45:13;7.93;;;3.15;;
8574;SDS011;4325;42.520;27.448;2023-07-20T13:47:39;3.75;;;2.85;;
8574;SDS011;4325;42.520;27.448;2023-07-20T13:50:06;3.53;;;3.22;;
8574;SDS011;4325;42.520;27.448;2023-07-20T13:52:34;3.60;;;2.65;;
8574;SDS011;4325;42.520;27.448;2023-07-20T13:55:02;4.45;;;3.10;;
8574;SDS011;4325;42.520;27.448;2023-07-20T13:57:29;3.58;;;3.25;;
8574;SDS011;4325;42.520;27.448;2023-07-20T13:59:58;2.78;;;2.58;;
8574;SDS011;4325;42.520;27.448;2023-07-20T14:02:26;3.50;;;2.90;;
8574;SDS011;4325;42.520;27.448;2023-07-20T14:04:53;3.47;;;3.13;;
8574;SDS011;4325;42.520;27.448;2023-07-20T14:07:21;3.97;;;2.47;;
8574;SDS011;4325;42.520;27.448;2023-07-20T14:09:48;2.90;;;2.53;;
8574;SDS011;4325;42.520;27.448;2023-07-20T14:12:14;2.70;;;2.33;;
8574;SDS011;4325;42.520;27.448;2023-07-20T14:14:41;4.03;;;2.72;;
8574;SDS011;4325;42.520;27.448;2023-07-20T14:17:10;4.45;;;3.03;;
8574;SDS011;4325;42.520;27.448;2023-07-20T14:19:37;3.20;;;2.67;;
8574;SDS011;4325;42.520;27.448;2023-07-20T14:22:04;2.77;;;2.53;;
8574;SDS011;4325;42.520;27.448;2023-07-20T14:24:31;6.17;;;2.70;;
8574;SDS011;4325;42.520;27.448;2023-07-20T14:26:58;7.43;;;2.70;;
8574;SDS011;4325;42.520;27.448;2023-07-20T14:29:25;5.77;;;3.70;;
8574;SDS011;4325;42.520;27.448;2023-07-20T14:31:56;3.13;;;2.90;;
8574;SDS011;4325;42.520;27.448;2023-07-20T14:34:25;7.17;;;2.77;;
8574;SDS011;4325;42.520;27.448;2023-07-20T14:36:52;4.13;;;2.67;;
8574;SDS011;4325;42.520;27.448;2023-07-20T14:39:19;3.90;;;2.83;;
8574;SDS011;4325;42.520;27.448;2023-07-20T14:41:46;3.77;;;2.87;;
8574;SDS011;4325;42.520;27.448;2023-07-20T14:44:13;3.77;;;3.00;;
8574;SDS011;4325;42.520;27.448;2023-07-20T14:46:40;2.80;;;2.43;;
8574;SDS011;4325;42.520;27.448;2023-07-20T14:49:07;2.80;;;2.60;;
8574;SDS011;4325;42.520;27.448;2023-07-20T14:51:36;2.63;;;2.43;;
8574;SDS011;4325;42.520;27.448;2023-07-20T14:54:08;3.37;;;3.03;;
8574;SDS011;4325;42.520;27.448;2023-07-20T14:56:37;3.63;;;2.63;;
8574;SDS011;4325;42.520;27.448;2023-07-20T14:59:04;4.07;;;3.00;;
8574;SDS011;4325;42.520;27.448;2023-07-20T15:01:31;3.37;;;2.90;;
8574;SDS011;4325;42.520;27.448;2023-07-20T15:03:58;2.93;;;2.73;;
8574;SDS011;4325;42.520;27.448;2023-07-20T15:06:25;2.93;;;2.60;;
8574;SDS011;4325;42.520;27.448;2023-07-20T15:08:57;2.70;;;2.47;;